createdAt,value
2023-05-15T00:02:10.543Z,740.45
2023-05-15T00:04:38.342Z,731.97
2023-05-15T00:07:06.371Z,735.35
2023-05-15T00:09:33.889Z,725.03
2023-05-15T00:12:01.921Z,735.10
2023-05-15T00:14:29.479Z,734.60
2023-05-15T00:16:57.169Z,725.15
2023-05-15T00:19:25.234Z,731.80
2023-05-15T00:21:53.974Z,732.63
2023-05-15T00:24:22.572Z,729.42
2023-05-15T00:26:50.389Z,729.50
2023-05-15T00:29:17.942Z,734.17
2023-05-15T00:31:45.945Z,713.00
2023-05-15T00:34:13.513Z,712.10
2023-05-15T00:36:41.167Z,718.20
2023-05-15T00:39:08.641Z,724.40
2023-05-15T00:41:37.360Z,723.38
2023-05-15T00:44:07.022Z,722.83
2023-05-15T00:46:36.943Z,717.13
2023-05-15T00:49:06.756Z,718.58
2023-05-15T00:51:35.696Z,705.17
2023-05-15T00:54:03.852Z,710.60
2023-05-15T00:56:33.549Z,714.22
2023-05-15T00:59:04.073Z,709.47
2023-05-15T01:01:34.749Z,705.42
2023-05-15T01:04:04.360Z,703.88
2023-05-15T01:06:32.314Z,710.78
2023-05-15T01:09:04.218Z,709.42
2023-05-15T01:11:36.239Z,705.73
2023-05-15T01:14:06.375Z,691.97
2023-05-15T01:16:35.907Z,694.17
2023-05-15T01:19:05.270Z,700.08
2023-05-15T01:21:36.834Z,698.85
2023-05-15T01:24:25.897Z,692.85
2023-05-15T01:27:15.384Z,689.75
2023-05-15T01:30:02.090Z,697.33
2023-05-15T01:32:49.927Z,687.38
2023-05-15T01:35:33.013Z,692.50
2023-05-15T01:38:13.108Z,701.83
2023-05-15T01:40:41.930Z,691.38
2023-05-15T01:43:15.849Z,688.03
2023-05-15T01:45:43.660Z,697.42
2023-05-15T01:48:13.968Z,697.38
2023-05-15T01:50:45.289Z,701.05
2023-05-15T01:53:12.841Z,702.28
2023-05-15T01:55:41.816Z,704.95
2023-05-15T01:58:10.171Z,693.10
2023-05-15T02:00:38.830Z,701.08
2023-05-15T02:03:07.115Z,688.15
2023-05-15T02:05:35.428Z,693.40
2023-05-15T02:08:04.635Z,696.78
2023-05-15T02:10:34.229Z,692.85
2023-05-15T02:13:02.066Z,697.07
2023-05-15T02:15:30.678Z,700.55
2023-05-15T02:17:58.493Z,691.20
2023-05-15T02:20:26.024Z,697.03
2023-05-15T02:22:53.717Z,689.28
2023-05-15T02:25:34.827Z,688.28
2023-05-15T02:28:07.306Z,687.63
2023-05-15T02:30:46.238Z,689.72
2023-05-15T02:33:31.312Z,693.90
2023-05-15T02:36:19.922Z,690.60
2023-05-15T02:38:55.538Z,695.88
2023-05-15T02:41:23.863Z,693.60
2023-05-15T02:43:55.392Z,688.28
2023-05-15T02:46:25.501Z,689.13
2023-05-15T02:48:55.302Z,694.37
2023-05-15T02:51:23.236Z,688.47
2023-05-15T02:53:52.661Z,686.00
2023-05-15T02:56:20.872Z,684.67
2023-05-15T02:58:49.688Z,685.85
2023-05-15T03:01:18.358Z,685.63
2023-05-15T03:03:46.513Z,684.92
2023-05-15T03:06:14.586Z,684.45
2023-05-15T03:08:42.131Z,683.35
2023-05-15T03:11:09.643Z,683.20
2023-05-15T03:13:38.109Z,681.15
2023-05-15T03:16:06.445Z,679.45
2023-05-15T03:18:34.162Z,679.63
2023-05-15T03:21:01.731Z,683.58
2023-05-15T03:23:31.286Z,684.22
2023-05-15T03:25:59.000Z,683.10
2023-05-15T03:28:26.968Z,684.05
2023-05-15T03:30:54.506Z,684.47
2023-05-15T03:33:22.150Z,685.35
2023-05-15T03:35:51.224Z,686.80
2023-05-15T03:38:20.024Z,689.05
2023-05-15T03:40:50.869Z,686.47
2023-05-15T03:43:18.697Z,675.50
2023-05-15T03:45:49.647Z,675.42
2023-05-15T03:48:17.865Z,678.38
2023-05-15T03:50:46.790Z,678.95
2023-05-15T03:53:14.732Z,682.97
2023-05-15T03:55:42.389Z,689.22
2023-05-15T03:58:09.872Z,698.38
2023-05-15T04:00:37.874Z,690.22
2023-05-15T04:03:06.036Z,698.90
2023-05-15T04:05:34.127Z,699.58
2023-05-15T04:08:01.737Z,712.08
2023-05-15T04:10:29.498Z,709.65
2023-05-15T04:12:57.510Z,724.30
2023-05-15T04:15:28.700Z,713.85
2023-05-15T04:17:56.515Z,706.55
2023-05-15T04:20:25.174Z,697.90
2023-05-15T04:22:53.852Z,703.22
2023-05-15T04:25:21.426Z,700.28
2023-05-15T04:27:49.479Z,679.95
2023-05-15T04:30:17.326Z,679.33
2023-05-15T04:32:45.973Z,674.17
2023-05-15T04:35:15.511Z,675.63
2023-05-15T04:37:45.494Z,10.15
2023-05-15T04:40:15.093Z,16.00
2023-05-15T04:42:42.672Z,85.17
2023-05-15T04:45:10.356Z,13.15
2023-05-15T04:47:38.042Z,13.93
2023-05-15T04:50:06.868Z,12.60
2023-05-15T04:52:34.392Z,11.70
2023-05-15T04:55:02.276Z,11.18
2023-05-15T04:57:30.575Z,9.82
2023-05-15T04:59:58.559Z,12.98
2023-05-15T05:02:26.297Z,548.03
2023-05-15T05:04:53.888Z,625.10
2023-05-15T05:07:21.771Z,639.30
2023-05-15T05:09:49.378Z,652.63
2023-05-15T05:12:16.857Z,660.53
2023-05-15T05:14:44.993Z,663.10
2023-05-15T05:17:12.563Z,662.15
2023-05-15T05:19:40.606Z,663.73
2023-05-15T05:22:08.356Z,662.55
2023-05-15T05:24:37.548Z,662.05
2023-05-15T05:27:05.617Z,664.63
2023-05-15T05:29:34.399Z,663.50
2023-05-15T05:32:02.012Z,663.92
2023-05-15T05:34:29.606Z,663.55
2023-05-15T05:36:57.670Z,664.28
2023-05-15T05:39:25.658Z,662.60
2023-05-15T05:41:53.719Z,664.92
2023-05-15T05:44:21.339Z,666.38
2023-05-15T05:46:49.689Z,669.42
2023-05-15T05:49:17.198Z,683.13
2023-05-15T05:51:47.090Z,692.85
2023-05-15T05:54:15.583Z,689.88
2023-05-15T05:56:43.173Z,701.10
2023-05-15T05:59:10.915Z,711.38
2023-05-15T06:01:38.561Z,717.30
2023-05-15T06:04:06.191Z,708.47
2023-05-15T06:06:34.612Z,709.20
2023-05-15T06:09:04.124Z,711.92
2023-05-15T06:11:32.928Z,713.40
2023-05-15T06:14:00.784Z,726.00
2023-05-15T06:16:28.396Z,727.25
2023-05-15T06:18:56.440Z,782.85
2023-05-15T06:21:24.079Z,794.97
2023-05-15T06:23:51.733Z,803.78
2023-05-15T06:26:19.950Z,796.97
2023-05-15T06:28:47.468Z,804.72
2023-05-15T06:31:15.084Z,807.70
2023-05-15T06:33:42.595Z,808.42
2023-05-15T06:36:10.090Z,815.13
2023-05-15T06:38:37.867Z,821.97
2023-05-15T06:41:05.593Z,829.17
2023-05-15T06:43:33.766Z,829.30
2023-05-15T06:46:01.856Z,826.97
2023-05-15T06:48:29.753Z,826.45
2023-05-15T06:50:57.389Z,834.60
2023-05-15T06:53:25.431Z,838.05
2023-05-15T06:55:53.325Z,831.20
2023-05-15T06:58:21.442Z,833.33
2023-05-15T07:00:49.002Z,835.28
2023-05-15T07:03:16.856Z,842.85
2023-05-15T07:05:45.445Z,828.15
2023-05-15T07:08:13.439Z,835.75
2023-05-15T07:10:41.658Z,837.20
2023-05-15T07:13:09.684Z,844.30
2023-05-15T07:15:37.705Z,853.07
2023-05-15T07:18:06.343Z,862.08
2023-05-15T07:20:35.127Z,859.17
2023-05-15T07:23:03.576Z,844.60
2023-05-15T07:25:31.497Z,850.22
2023-05-15T07:27:58.947Z,840.50
2023-05-15T07:30:27.114Z,845.58
2023-05-15T07:32:55.079Z,858.90
2023-05-15T07:35:23.029Z,856.60
2023-05-15T07:37:50.839Z,861.08
2023-05-15T07:40:18.837Z,867.08
2023-05-15T07:42:47.093Z,870.90
2023-05-15T07:45:14.853Z,876.80
2023-05-15T07:47:49.039Z,853.63
2023-05-15T07:50:17.776Z,848.58
2023-05-15T07:52:45.743Z,846.90
2023-05-15T07:55:13.759Z,847.53
2023-05-15T07:57:41.531Z,849.70
2023-05-15T08:00:12.944Z,838.97
2023-05-15T08:02:42.657Z,840.63
2023-05-15T08:05:10.754Z,833.33
2023-05-15T08:07:38.681Z,839.58
2023-05-15T08:10:07.397Z,841.53
2023-05-15T08:12:35.392Z,845.92
2023-05-15T08:15:03.320Z,848.90
2023-05-15T08:17:31.281Z,868.60
2023-05-15T08:19:58.745Z,888.88
2023-05-15T08:22:26.716Z,902.15
2023-05-15T08:24:54.984Z,902.05
2023-05-15T08:27:22.700Z,913.60
2023-05-15T08:29:50.548Z,920.63
2023-05-15T08:32:18.857Z,930.97
2023-05-15T08:34:46.413Z,921.40
2023-05-15T08:37:14.305Z,927.83
2023-05-15T08:39:41.857Z,945.50
2023-05-15T08:42:19.975Z,955.50
2023-05-15T08:44:48.667Z,958.63
2023-05-15T08:47:16.791Z,916.22
2023-05-15T08:50:17.523Z,928.63
2023-05-15T08:52:47.480Z,941.38
2023-05-15T08:55:16.759Z,940.13
2023-05-15T08:57:45.677Z,951.92
2023-05-15T09:00:14.976Z,963.08
2023-05-15T09:02:43.283Z,941.42
2023-05-15T09:05:11.371Z,950.92
2023-05-15T09:07:41.799Z,955.58
2023-05-15T09:10:11.151Z,945.97
2023-05-15T09:12:43.576Z,943.38
2023-05-15T09:15:18.646Z,945.95
2023-05-15T09:17:46.405Z,956.13
2023-05-15T09:20:34.553Z,968.53
2023-05-15T09:23:04.572Z,977.75
2023-05-15T09:25:40.847Z,990.35
2023-05-15T09:28:10.751Z,991.53
2023-05-15T09:30:39.356Z,995.67
2023-05-15T09:33:07.234Z,994.40
2023-05-15T09:35:37.336Z,1000.15
2023-05-15T09:38:10.612Z,1009.08
2023-05-15T09:40:39.370Z,994.50
2023-05-15T09:43:08.076Z,1005.80
2023-05-15T09:45:35.661Z,1014.60
2023-05-15T09:48:08.619Z,1019.80
2023-05-15T09:50:40.978Z,1017.30
2023-05-15T09:53:13.219Z,1020.80
2023-05-15T09:55:42.711Z,1024.68
2023-05-15T09:58:11.836Z,1017.58
2023-05-15T10:00:47.895Z,748.70
2023-05-15T10:03:20.080Z,1015.35
2023-05-15T10:05:49.176Z,930.70
2023-05-15T10:08:27.233Z,761.45
2023-05-15T10:10:58.572Z,235.32
2023-05-15T10:13:27.418Z,31.85
2023-05-15T10:15:57.607Z,9.38
2023-05-15T10:18:30.562Z,9.20
2023-05-15T10:21:01.362Z,1068.70
2023-05-15T10:23:31.444Z,1180.38
2023-05-15T10:26:08.991Z,6.45
2023-05-15T10:28:38.048Z,9.95
2023-05-15T10:31:07.676Z,7.63
2023-05-15T10:33:37.505Z,38.38
2023-05-15T10:36:05.706Z,7.95
2023-05-15T10:38:34.723Z,9.75
2023-05-15T10:41:15.697Z,9.73
2023-05-15T10:43:46.685Z,6.27
2023-05-15T10:46:15.865Z,1010.22
2023-05-15T10:48:43.866Z,89.38
2023-05-15T10:51:39.567Z,7.20
2023-05-15T10:54:10.163Z,228.82
2023-05-15T10:56:39.602Z,5.87
2023-05-15T10:59:09.663Z,10.82
2023-05-15T11:01:39.224Z,9.23
2023-05-15T11:04:19.322Z,222.57
2023-05-15T11:06:48.450Z,58.13
2023-05-15T11:09:22.089Z,770.65
2023-05-15T11:11:52.570Z,6.63
2023-05-15T11:14:20.871Z,8.05
2023-05-15T11:16:54.683Z,7.28
2023-05-15T11:19:22.484Z,1053.10
2023-05-15T11:21:59.482Z,6.45
2023-05-15T11:24:49.331Z,7.65
2023-05-15T11:27:21.413Z,8.50
2023-05-15T11:30:22.205Z,819.70
2023-05-15T11:33:00.759Z,6.10
2023-05-15T11:35:43.301Z,559.05
2023-05-15T11:38:11.525Z,4.70
2023-05-15T11:40:58.610Z,5.85
2023-05-15T11:43:27.588Z,3.88
2023-05-15T11:46:05.875Z,1078.88
2023-05-15T11:48:35.878Z,4.67
2023-05-15T11:51:04.451Z,1036.68
2023-05-15T11:53:33.408Z,5.07
2023-05-15T11:56:00.978Z,5.17
2023-05-15T11:58:28.639Z,4.70
2023-05-15T12:00:58.231Z,641.95
2023-05-15T12:03:34.085Z,4.88
2023-05-15T12:06:02.981Z,5.47
2023-05-15T12:08:38.944Z,79.00
2023-05-15T12:11:06.529Z,5.03
2023-05-15T12:13:34.861Z,3.35
2023-05-15T12:16:04.008Z,20.40
2023-05-15T12:18:32.659Z,4.35
2023-05-15T12:21:00.496Z,3.25
2023-05-15T12:23:28.854Z,1002.30
2023-05-15T12:26:01.006Z,3.38
2023-05-15T12:28:30.281Z,2.83
2023-05-15T12:30:58.713Z,4.50
2023-05-15T12:33:26.702Z,6.25
2023-05-15T12:35:58.956Z,639.50
2023-05-15T12:38:28.916Z,3.40
2023-05-15T12:40:57.253Z,5.95
2023-05-15T12:43:26.137Z,406.85
2023-05-15T12:45:55.361Z,876.03
2023-05-15T12:48:24.059Z,3.55
2023-05-15T12:50:51.746Z,3.00
2023-05-15T12:53:22.568Z,2.88
2023-05-15T12:55:53.584Z,2.90
2023-05-15T12:58:48.754Z,3.35
2023-05-15T13:01:17.717Z,2.95
2023-05-15T13:03:45.834Z,4.53
2023-05-15T13:06:13.536Z,5.60
2023-05-15T13:08:42.060Z,3.00
2023-05-15T13:11:16.730Z,1.50
2023-05-15T13:13:48.914Z,3.70
2023-05-15T13:16:26.064Z,136.55
2023-05-15T13:18:53.960Z,2.83
2023-05-15T13:21:21.838Z,3.63
2023-05-15T13:23:49.845Z,224.18
2023-05-15T13:26:17.876Z,3.00
2023-05-15T13:28:45.358Z,3.10
2023-05-15T13:31:12.954Z,166.05
2023-05-15T13:33:40.546Z,5.10
2023-05-15T13:36:08.919Z,6.13
2023-05-15T13:38:37.118Z,5.65
2023-05-15T13:41:05.441Z,4.20
2023-05-15T13:43:33.584Z,4.38
2023-05-15T13:46:01.591Z,3.40
2023-05-15T13:48:29.508Z,77.97
2023-05-15T13:50:57.408Z,94.50
2023-05-15T13:53:24.903Z,227.65
2023-05-15T13:55:53.381Z,305.35
2023-05-15T13:58:21.229Z,4.95
2023-05-15T14:00:48.840Z,219.02
2023-05-15T14:03:16.414Z,5.78
2023-05-15T14:05:44.522Z,3.00
2023-05-15T14:08:12.186Z,11.25
2023-05-15T14:10:39.743Z,2.60
2023-05-15T14:13:07.667Z,2.30
2023-05-15T14:15:35.144Z,201.75
2023-05-15T14:18:03.315Z,261.08
2023-05-15T14:20:30.900Z,434.38
2023-05-15T14:22:58.843Z,6.05
2023-05-15T14:25:26.391Z,565.28
2023-05-15T14:27:54.316Z,10.27
2023-05-15T14:30:22.035Z,3.80
2023-05-15T14:32:49.555Z,2.63
2023-05-15T14:35:17.291Z,2.88
2023-05-15T14:37:45.600Z,4.13
2023-05-15T14:40:13.509Z,2.60
2023-05-15T14:42:41.142Z,125.72
2023-05-15T14:45:09.709Z,273.20
2023-05-15T14:47:37.272Z,303.25
2023-05-15T14:50:05.711Z,2.80
2023-05-15T14:52:33.879Z,639.10
2023-05-15T14:55:09.274Z,4.10
2023-05-15T14:57:38.639Z,2.72
2023-05-15T15:00:07.349Z,2.85
2023-05-15T15:02:35.627Z,52.30
2023-05-15T15:05:04.535Z,227.30
2023-05-15T15:07:59.447Z,4.20
2023-05-15T15:10:27.870Z,3.95
2023-05-15T15:12:56.332Z,6.93
2023-05-15T15:15:24.789Z,2.97
2023-05-15T15:17:53.194Z,659.22
2023-05-15T15:20:21.929Z,4.10
2023-05-15T15:22:49.612Z,414.52
2023-05-15T15:25:18.030Z,4.65
2023-05-15T15:27:46.466Z,147.73
2023-05-15T15:30:15.418Z,2.05
2023-05-15T15:32:45.488Z,3.10
2023-05-15T15:35:13.850Z,4.25
2023-05-15T15:37:41.591Z,8.82
2023-05-15T15:40:09.786Z,1.50
2023-05-15T15:42:38.178Z,787.50
2023-05-15T15:45:06.863Z,2.88
2023-05-15T15:47:34.387Z,653.90
2023-05-15T15:50:02.987Z,2.58
2023-05-15T15:52:30.814Z,3.63
2023-05-15T15:54:58.718Z,85.47
2023-05-15T15:57:28.507Z,809.45
2023-05-15T15:59:56.440Z,991.20
2023-05-15T16:02:24.441Z,152.83
2023-05-15T16:04:52.038Z,738.90
2023-05-15T16:07:20.776Z,1129.90
2023-05-15T16:09:59.878Z,1153.68
2023-05-15T16:12:35.923Z,1112.00
2023-05-15T16:15:17.503Z,1055.38
2023-05-15T16:17:54.147Z,1112.30
2023-05-15T16:20:22.897Z,1107.70
2023-05-15T16:22:50.958Z,1132.57
2023-05-15T16:25:18.953Z,1178.15
2023-05-15T16:27:46.890Z,3.58
2023-05-15T16:30:14.579Z,2.97
2023-05-15T16:32:42.547Z,1052.07
2023-05-15T16:35:10.212Z,3.70
2023-05-15T16:37:37.876Z,118.10
2023-05-15T16:40:07.044Z,8.35
2023-05-15T16:42:38.666Z,199.35
2023-05-15T16:45:07.662Z,9.05
2023-05-15T16:47:37.702Z,507.63
2023-05-15T16:50:08.797Z,1001.35
2023-05-15T16:52:38.859Z,1066.68
2023-05-15T16:55:07.241Z,1051.30
2023-05-15T16:57:34.783Z,1030.60
2023-05-15T17:00:02.875Z,1013.88
2023-05-15T17:02:30.779Z,998.28
2023-05-15T17:04:59.029Z,1011.30
2023-05-15T17:07:26.921Z,828.42
2023-05-15T17:09:54.954Z,978.22
2023-05-15T17:12:23.630Z,1016.53
2023-05-15T17:14:51.287Z,1021.22
2023-05-15T17:17:19.122Z,994.17
2023-05-15T17:19:46.818Z,1006.33
2023-05-15T17:22:15.066Z,997.22
2023-05-15T17:27:18.484Z,1003.25
2023-05-15T17:29:47.000Z,1006.53
2023-05-15T17:32:16.952Z,1011.20
2023-05-15T17:34:45.533Z,1007.05
2023-05-15T17:37:13.613Z,997.40
2023-05-15T17:39:41.525Z,1003.03
2023-05-15T17:42:09.166Z,1001.15
2023-05-15T17:44:37.273Z,993.25
2023-05-15T17:47:05.314Z,963.55
2023-05-15T17:49:34.669Z,968.33
2023-05-15T17:52:02.683Z,977.50
2023-05-15T17:54:30.380Z,964.55
2023-05-15T17:56:57.854Z,958.92
2023-05-15T17:59:26.268Z,965.25
2023-05-15T18:01:54.760Z,969.75
2023-05-15T18:04:22.729Z,956.00
2023-05-15T18:06:51.520Z,964.38
2023-05-15T18:09:23.207Z,960.92
2023-05-15T18:11:52.679Z,962.45
2023-05-15T18:14:20.863Z,959.55
2023-05-15T18:16:48.358Z,966.47
2023-05-15T18:19:16.493Z,967.67
2023-05-15T18:21:44.081Z,963.07
2023-05-15T18:24:11.601Z,959.03
2023-05-15T18:26:39.156Z,959.45
2023-05-15T18:29:06.910Z,963.87
2023-05-15T18:31:34.890Z,966.13
2023-05-15T18:34:02.676Z,966.13
2023-05-15T18:36:30.902Z,964.63
2023-05-15T18:38:58.926Z,969.65
2023-05-15T18:41:27.181Z,963.08
2023-05-15T18:43:55.727Z,972.63
2023-05-15T18:46:25.766Z,975.00
2023-05-15T18:48:53.785Z,977.92
2023-05-15T18:51:21.783Z,975.50
2023-05-15T18:53:49.388Z,975.85
2023-05-15T18:56:16.923Z,978.80
2023-05-15T18:58:47.339Z,980.17
2023-05-15T19:01:15.021Z,981.53
2023-05-15T19:03:42.985Z,985.67
2023-05-15T19:06:11.620Z,978.10
2023-05-15T19:08:39.573Z,978.13
2023-05-15T19:11:08.842Z,975.60
2023-05-15T19:13:36.775Z,972.28
2023-05-15T19:16:06.152Z,972.28
2023-05-15T19:18:33.908Z,969.93
2023-05-15T19:21:02.040Z,971.70
2023-05-15T19:23:29.703Z,973.92
2023-05-15T19:25:57.678Z,973.33
2023-05-15T19:28:26.177Z,971.78
2023-05-15T19:30:54.058Z,969.17
2023-05-15T19:33:22.110Z,963.83
2023-05-15T19:35:49.739Z,965.83
2023-05-15T19:38:19.211Z,966.30
2023-05-15T19:40:46.998Z,964.58
2023-05-15T19:43:14.898Z,961.22
2023-05-15T19:45:43.871Z,963.83
2023-05-15T19:48:12.082Z,961.30
2023-05-15T19:50:40.144Z,963.55
2023-05-15T19:53:08.708Z,944.65
2023-05-15T19:55:36.264Z,922.83
2023-05-15T19:58:04.245Z,931.03
2023-05-15T20:00:32.487Z,958.88
2023-05-15T20:03:01.048Z,945.92
2023-05-15T20:05:29.558Z,953.83
2023-05-15T20:07:57.237Z,939.83
2023-05-15T20:10:25.550Z,939.10
2023-05-15T20:12:53.335Z,935.17
2023-05-15T20:15:21.240Z,929.40
2023-05-15T20:17:48.905Z,943.78
2023-05-15T20:20:17.804Z,927.22
2023-05-15T20:22:46.484Z,925.50
2023-05-15T20:25:15.173Z,927.30
2023-05-15T20:27:42.804Z,942.40
2023-05-15T20:30:11.862Z,935.83
2023-05-15T20:32:39.992Z,928.85
2023-05-15T20:35:09.141Z,936.60
2023-05-15T20:37:42.782Z,935.83
2023-05-15T20:40:15.736Z,933.60
2023-05-15T20:42:43.557Z,933.08
2023-05-15T20:45:11.452Z,936.78
2023-05-15T20:47:40.488Z,935.50
2023-05-15T20:50:12.877Z,929.63
2023-05-15T20:52:41.348Z,924.72
2023-05-15T20:55:16.654Z,919.08
2023-05-15T20:57:47.175Z,922.53
2023-05-15T21:00:17.201Z,920.50
2023-05-15T21:02:46.050Z,844.30
2023-05-15T21:05:14.830Z,845.03
2023-05-15T21:07:42.846Z,842.85
2023-05-15T21:10:11.615Z,895.92
2023-05-15T21:12:39.939Z,932.25
2023-05-15T21:15:08.034Z,893.28
2023-05-15T21:17:36.070Z,887.35
2023-05-15T21:20:05.000Z,882.53
2023-05-15T21:22:34.593Z,887.87
2023-05-15T21:25:02.220Z,306.73
2023-05-15T21:27:29.917Z,670.78
2023-05-15T21:29:57.478Z,671.03
2023-05-15T21:32:25.640Z,645.35
2023-05-15T21:34:53.545Z,602.65
2023-05-15T21:37:21.255Z,658.22
2023-05-15T21:39:49.307Z,638.43
2023-05-15T21:42:16.893Z,665.05
2023-05-15T21:44:46.478Z,663.78
2023-05-15T21:47:13.938Z,822.90
2023-05-15T21:49:41.836Z,821.60
2023-05-15T21:52:09.561Z,822.17
2023-05-15T21:54:37.088Z,819.95
2023-05-15T21:57:04.924Z,823.90
2023-05-15T21:59:32.433Z,815.23
2023-05-15T22:02:00.618Z,828.08
2023-05-15T22:04:30.243Z,828.47
2023-05-15T22:06:58.189Z,827.50
2023-05-15T22:09:26.029Z,821.55
2023-05-15T22:11:53.655Z,800.70
2023-05-15T22:14:21.716Z,825.22
2023-05-15T22:16:49.392Z,819.92
2023-05-15T22:19:31.519Z,809.73
2023-05-15T22:22:03.611Z,789.05
2023-05-15T22:24:31.235Z,812.92
2023-05-15T22:26:59.774Z,814.33
2023-05-15T22:29:27.897Z,821.75
2023-05-15T22:31:56.391Z,819.55
2023-05-15T22:34:25.944Z,825.95
2023-05-15T22:39:28.296Z,833.55
2023-05-15T22:41:56.033Z,834.47
2023-05-15T22:44:23.755Z,834.75
2023-05-15T22:46:51.611Z,838.88
2023-05-15T22:49:23.705Z,846.05
2023-05-15T22:51:55.927Z,850.58
2023-05-15T22:54:24.638Z,846.83
2023-05-15T22:56:53.065Z,846.50
2023-05-15T22:59:20.996Z,841.35
2023-05-15T23:01:49.357Z,836.45
2023-05-15T23:04:17.947Z,812.88
2023-05-15T23:06:45.801Z,799.73
2023-05-15T23:09:14.181Z,784.90
2023-05-15T23:11:42.423Z,776.85
2023-05-15T23:14:10.020Z,792.85
2023-05-15T23:16:37.756Z,784.33
2023-05-15T23:19:05.969Z,793.97
2023-05-15T23:21:33.949Z,800.50
2023-05-15T23:24:01.575Z,776.88
2023-05-15T23:26:29.776Z,793.90
2023-05-15T23:28:57.366Z,804.90
2023-05-15T23:31:26.194Z,821.80
2023-05-15T23:33:53.819Z,814.10
2023-05-15T23:36:21.557Z,818.10
2023-05-15T23:38:49.165Z,831.92
2023-05-15T23:41:17.383Z,821.72
2023-05-15T23:43:44.892Z,837.27
2023-05-15T23:46:12.510Z,825.15
2023-05-15T23:48:40.124Z,817.38
2023-05-15T23:51:08.016Z,828.10
2023-05-15T23:53:36.813Z,834.22
2023-05-15T23:56:05.195Z,826.45
2023-05-15T23:58:33.967Z,828.58
